Time;durP1;ratioP1;P1;durP2;ratioP2;P2;SDS_P1;SDS_P2;PMS_P1;PMS_P2;Temp;Humidity;BMP_temperature;BMP_pressure;BME280_temperature;BME280_humidity;BME280_pressure;Samples;Min_cycle;Max_cycle;Signal;HPM_P1;HPM_P2
2022/05/03 00:03:11;;;;;;;18.90;14.70;;;;;;;7.73;76.93;102023.84;10378570;28;20148;-73
2022/05/03 00:08:37;;;;;;;19.85;15.50;;;;;;;7.64;77.27;102022.88;10377333;28;20026;-73
2022/05/03 00:13:49;;;;;;;18.85;13.65;;;;;;;7.58;77.14;102018.09;10377202;28;20030;-75
2022/05/03 00:18:49;;;;;;;21.35;15.95;;;;;;;7.59;77.60;102017.09;10378116;28;20519;-72
2022/05/03 00:23:50;;;;;;;23.48;18.48;;;;;;;7.60;77.68;102016.13;10359482;28;20065;-73
2022/05/03 00:28:50;;;;;;;31.70;18.80;;;;;;;7.54;77.53;102016.72;10377363;28;20036;-73
2022/05/03 00:33:52;;;;;;;24.65;18.70;;;;;;;7.50;77.85;102018.03;10343438;28;20030;-73
2022/05/03 00:38:53;;;;;;;24.55;20.05;;;;;;;7.45;77.94;102020.31;10359088;28;20096;-73
2022/05/03 00:44:55;;;;;;;28.40;18.27;;;;;;;7.40;77.81;102020.75;10374645;28;20065;-73
2022/05/03 00:49:44;;;;;;;25.98;18.17;;;;;;;7.34;77.89;102015.09;10374873;28;20065;-73
2022/05/03 00:55:00;;;;;;;24.50;21.40;;;;;;;7.31;77.94;102010.03;10358623;28;20088;-73
2022/05/03 01:00:11;;;;;;;30.65;21.25;;;;;;;7.30;77.67;102013.69;10358855;28;20036;-73
2022/05/03 01:05:12;;;;;;;24.15;20.00;;;;;;;7.23;77.92;102008.91;10357802;28;20034;-73
2022/05/03 01:10:39;;;;;;;32.92;21.80;;;;;;;7.20;78.16;102013.75;10358848;28;20030;-73
2022/05/03 01:15:44;;;;;;;25.75;22.50;;;;;;;7.11;77.86;102010.09;10359334;28;20033;-73
2022/05/03 01:21:14;;;;;;;26.48;20.90;;;;;;;7.11;78.12;102010.09;10379623;28;20180;-73
2022/05/03 01:26:33;;;;;;;33.47;23.00;;;;;;;7.09;77.93;102001.31;10375705;28;20040;-73
2022/05/03 01:31:34;;;;;;;32.95;21.65;;;;;;;7.07;77.89;102011.38;10357927;28;20034;-74
2022/05/03 01:36:44;;;;;;;31.45;20.60;;;;;;;7.04;78.16;102009.00;10376651;28;20034;-73
2022/05/03 01:42:00;;;;;;;36.42;22.25;;;;;;;7.01;78.38;102000.34;10358699;28;20034;-73
2022/05/03 01:47:33;;;;;;;28.93;21.10;;;;;;;6.98;78.39;101994.25;10372754;28;20054;-73
2022/05/03 01:52:57;;;;;;;33.67;23.75;;;;;;;6.99;78.67;101992.44;10371302;28;20346;-73
2022/05/03 01:58:31;;;;;;;33.05;23.17;;;;;;;6.97;78.75;101997.09;10379232;28;20113;-73
2022/05/03 02:04:10;;;;;;;34.50;24.45;;;;;;;6.92;78.94;101988.63;10364965;28;20038;-73
2022/05/03 02:09:11;;;;;;;36.38;23.83;;;;;;;6.93;79.03;102001.09;10346886;28;20148;-74
2022/05/03 02:20:17;;;;;;;34.22;24.08;;;;;;;6.93;79.72;101987.63;10366779;28;20038;-73
2022/05/03 02:25:34;;;;;;;33.45;26.52;;;;;;;6.96;79.59;101995.44;10363800;28;20041;-73
2022/05/03 02:30:34;;;;;;;31.10;21.55;;;;;;;6.93;79.82;101996.56;10381914;28;20026;-72
2022/05/03 02:35:35;;;;;;;36.58;23.05;;;;;;;7.00;80.18;101991.44;10381905;28;20041;-74
2022/05/03 02:40:39;;;;;;;30.52;25.02;;;;;;;7.04;79.68;101987.44;10364837;28;20581;-73
2022/05/03 02:45:41;;;;;;;35.28;26.27;;;;;;;7.06;80.01;101985.47;10363425;28;20030;-74
2022/05/03 02:50:53;;;;;;;30.38;25.75;;;;;;;7.07;79.82;101986.31;10380757;28;20062;-73
2022/05/03 02:55:54;;;;;;;30.35;24.08;;;;;;;7.16;80.26;101982.72;10365228;28;20044;-74
2022/05/03 03:06:43;;;;;;;35.95;25.90;;;;;;;7.48;80.95;101990.34;10378730;28;20069;-73
2022/05/03 03:11:53;;;;;;;50.67;30.00;;;;;;;7.66;81.24;101988.56;10378497;28;20123;-74
2022/05/03 03:16:54;;;;;;;45.65;28.02;;;;;;;7.84;81.38;101988.56;10380244;28;20026;-74
2022/05/03 03:21:55;;;;;;;34.35;26.48;;;;;;;8.00;80.85;101984.34;10361767;28;20458;-74
2022/05/03 03:26:57;;;;;;;40.03;29.55;;;;;;;8.13;81.99;101974.00;10378172;28;20045;-74
2022/05/03 03:32:01;;;;;;;35.65;26.23;;;;;;;8.25;81.29;101972.75;10377970;28;20466;-74
2022/05/03 03:37:01;;;;;;;43.75;29.27;;;;;;;8.34;81.66;101974.53;10360997;28;20382;-73
2022/05/03 03:42:02;;;;;;;39.83;27.30;;;;;;;8.49;81.62;101977.53;10377269;28;20034;-73
2022/05/03 03:47:02;;;;;;;34.92;27.65;;;;;;;8.55;81.64;101967.94;10379175;28;20137;-74
2022/05/03 03:52:03;;;;;;;35.95;25.77;;;;;;;8.62;82.03;101969.03;10379552;28;20042;-74
2022/05/03 03:57:04;;;;;;;37.25;27.65;;;;;;;8.64;81.35;101976.97;10378620;28;20065;-73
2022/05/03 04:02:05;;;;;;;44.72;26.58;;;;;;;8.64;81.10;101977.81;10360110;28;20121;-73
2022/05/03 04:07:05;;;;;;;47.85;27.27;;;;;;;8.68;81.81;101983.72;10376504;28;20117;-73
2022/05/03 04:12:06;;;;;;;37.13;24.30;;;;;;;8.74;81.71;101980.38;10378042;28;20045;-73
2022/05/03 04:17:06;;;;;;;30.92;23.05;;;;;;;8.74;81.22;101973.16;10377751;28;20084;-73
2022/05/03 04:22:45;;;;;;;41.15;26.92;;;;;;;8.72;81.28;101987.81;10378309;28;20072;-72
2022/05/03 04:27:46;;;;;;;37.28;24.95;;;;;;;8.59;80.91;101982.84;10264774;28;20086;-75
2022/05/03 04:32:46;;;;;;;33.65;24.00;;;;;;;8.48;80.92;101983.09;10357877;28;20100;-75
2022/05/03 04:37:47;;;;;;;33.13;22.30;;;;;;;8.42;81.11;101968.34;10376280;28;20034;-75
2022/05/03 04:42:47;;;;;;;38.65;25.63;;;;;;;8.62;81.48;101985.22;10360139;28;20088;-73
2022/05/03 04:47:48;;;;;;;33.22;25.20;;;;;;;8.92;82.35;101973.09;10360240;28;20050;-74
2022/05/03 04:52:48;;;;;;;32.58;23.30;;;;;;;9.29;82.16;101972.75;10376080;28;20466;-74
2022/05/03 04:57:49;;;;;;;35.78;23.25;;;;;;;9.69;82.54;101981.16;10376235;28;20034;-74
2022/05/03 05:02:50;;;;;;;36.65;25.23;;;;;;;10.01;81.68;101983.09;10375444;28;20034;-75
2022/05/03 05:07:50;;;;;;;29.83;23.25;;;;;;;10.25;81.38;101993.09;10378832;28;20426;-76
2022/05/03 05:12:51;;;;;;;31.60;21.42;;;;;;;10.47;80.94;101986.19;10360937;28;20136;-77
2022/05/03 05:17:52;;;;;;;27.52;22.30;;;;;;;10.68;81.27;101991.06;10358511;28;20413;-75
2022/05/03 05:22:53;;;;;;;32.00;22.27;;;;;;;10.83;81.80;101997.47;10357289;28;20414;-76
2022/05/03 05:27:53;;;;;;;27.17;21.23;;;;;;;10.98;82.25;101994.91;10373325;28;20037;-74
2022/05/03 05:32:54;;;;;;;35.70;23.13;;;;;;;11.14;82.07;101999.44;10373598;28;20034;-75
2022/05/03 05:37:54;;;;;;;23.73;19.67;;;;;;;11.33;81.81;101996.31;10374723;28;20038;-76
2022/05/03 05:43:01;;;;;;;30.10;22.80;;;;;;;11.46;82.04;101986.78;10374985;28;20470;-74
2022/05/03 05:48:02;;;;;;;43.92;23.90;;;;;;;11.64;82.19;101993.59;10358323;28;20060;-75
2022/05/03 05:58:21;;;;;;;29.60;22.33;;;;;;;11.94;82.80;102001.13;10380257;28;20398;-76
2022/05/03 06:03:22;;;;;;;35.67;26.00;;;;;;;12.19;81.62;102001.78;10374973;28;20086;-77
2022/05/03 06:08:22;;;;;;;35.75;24.35;;;;;;;12.36;82.16;102002.53;10356671;28;20030;-75
2022/05/03 06:13:23;;;;;;;41.97;26.70;;;;;;;12.60;82.73;102010.44;10373886;28;20034;-76
2022/05/03 06:18:23;;;;;;;36.90;23.10;;;;;;;12.88;81.67;102009.84;10357315;28;20061;-75
2022/05/03 06:23:24;;;;;;;30.17;20.23;;;;;;;13.06;83.52;102009.50;10374087;28;20070;-76
2022/05/03 06:28:24;;;;;;;28.90;19.85;;;;;;;13.25;82.67;102015.25;10374464;28;20442;-76
2022/05/03 06:33:25;;;;;;;29.00;20.45;;;;;;;13.32;82.87;102003.63;10356377;28;20037;-74
2022/05/03 06:38:26;;;;;;;30.27;18.70;;;;;;;13.30;84.04;102022.81;10372516;28;20052;-76
2022/05/03 06:43:26;;;;;;;25.42;20.38;;;;;;;13.48;82.55;102014.28;10359246;28;20033;-76
2022/05/03 06:48:26;;;;;;;25.50;18.13;;;;;;;13.54;84.12;102009.97;10382748;28;20053;-76
2022/05/03 06:53:27;;;;;;;23.33;18.60;;;;;;;13.66;84.54;102017.47;10381678;28;20097;-75
2022/05/03 06:58:27;;;;;;;29.83;18.23;;;;;;;13.85;84.07;102021.47;10381021;28;20145;-75
2022/05/03 07:03:28;;;;;;;29.02;19.52;;;;;;;14.04;82.49;102005.50;10380498;28;20116;-75
2022/05/03 07:08:29;;;;;;;26.98;19.60;;;;;;;14.41;81.90;102010.69;10380996;28;20041;-76
2022/05/03 07:13:29;;;;;;;26.67;18.38;;;;;;;14.67;82.22;102022.06;10379263;28;20389;-75
2022/05/03 07:23:49;;;;;;;25.35;16.77;;;;;;;15.01;80.42;102024.00;10379172;28;20041;-76
2022/05/03 07:28:51;;;;;;;21.17;15.60;;;;;;;15.35;78.68;102012.25;10349588;28;20470;-75
2022/05/03 07:33:52;;;;;;;18.73;14.65;;;;;;;15.64;79.74;102022.06;10380766;28;20117;-76
2022/05/03 07:38:52;;;;;;;19.00;13.77;;;;;;;15.68;79.04;102025.25;10376904;28;20121;-77
2022/05/03 07:43:52;;;;;;;16.33;12.98;;;;;;;15.74;78.03;102033.47;10361815;28;20066;-76
2022/05/03 07:48:54;;;;;;;17.40;14.40;;;;;;;15.77;77.48;102034.94;10378120;28;20062;-75
2022/05/03 07:53:55;;;;;;;21.25;15.35;;;;;;;15.98;77.35;102034.78;10378088;28;20030;-75
2022/05/03 07:58:55;;;;;;;17.55;13.68;;;;;;;15.99;77.05;102032.94;10378035;28;20048;-76
2022/05/03 08:03:56;;;;;;;21.17;12.57;;;;;;;15.74;76.40;102032.63;10379134;28;20050;-76
2022/05/03 08:08:56;;;;;;;21.23;15.48;;;;;;;15.46;76.81;102033.50;10380637;28;20116;-77
2022/05/03 08:13:56;;;;;;;24.83;15.35;;;;;;;15.15;76.90;102035.84;10377941;28;20482;-78
2022/05/03 08:18:57;;;;;;;22.98;17.77;;;;;;;14.87;77.01;102053.91;10377507;28;20049;-75
2022/05/03 08:23:58;;;;;;;31.85;19.38;;;;;;;14.72;77.31;102050.44;10375668;28;20032;-76
2022/05/03 08:28:58;;;;;;;21.77;19.50;;;;;;;14.69;77.88;102061.72;10359547;28;20363;-76
2022/05/03 08:34:02;;;;;;;33.92;21.88;;;;;;;15.66;76.24;102055.44;10376387;28;20077;-76
2022/05/03 08:44:21;;;;;;;34.30;23.40;;;;;;;16.32;75.86;102041.19;10361273;28;20045;-76
2022/05/03 08:49:25;;;;;;;30.98;22.92;;;;;;;16.00;76.06;102051.00;10373911;28;20062;-76
2022/05/03 08:54:26;;;;;;;39.22;26.75;;;;;;;15.95;75.99;102056.22;10343291;28;20041;-77
2022/05/03 08:59:26;;;;;;;36.15;21.98;;;;;;;16.03;75.66;102056.03;10359890;28;20040;-75
2022/05/03 09:04:27;;;;;;;40.55;24.02;;;;;;;16.23;75.28;102058.81;10342616;28;20038;-76
2022/05/03 09:09:28;;;;;;;36.40;24.02;;;;;;;16.38;74.70;102059.50;10362715;28;20098;-74
2022/05/03 09:14:39;;;;;;;39.92;24.50;;;;;;;16.40;75.27;102051.94;10375652;28;20041;-75
2022/05/03 09:19:40;;;;;;;43.78;25.35;;;;;;;16.36;74.63;102060.75;10357587;28;20036;-75
2022/05/03 09:25:04;;;;;;;37.65;24.83;;;;;;;16.17;75.74;102060.47;10374830;28;20030;-76
2022/05/03 09:30:09;;;;;;;37.15;24.85;;;;;;;15.69;76.04;102071.44;10357772;28;20033;-76
2022/05/03 09:35:32;;;;;;;42.17;23.23;;;;;;;15.63;75.63;102068.66;10373193;28;20179;-75
2022/05/03 09:40:36;;;;;;;40.28;23.95;;;;;;;15.69;75.37;102067.88;10374207;28;20037;-76
2022/05/03 09:45:36;;;;;;;34.10;20.63;;;;;;;15.69;75.58;102071.44;10357253;28;20038;-76
2022/05/03 09:50:44;;;;;;;30.10;21.77;;;;;;;15.79;75.09;102069.22;10356727;28;20054;-75
2022/05/03 09:55:47;;;;;;;42.35;21.98;;;;;;;15.71;75.40;102060.34;10340239;28;20358;-76
2022/05/03 10:00:48;;;;;;;44.03;23.23;;;;;;;15.87;75.57;102059.16;10372581;28;20028;-75
2022/05/03 10:05:48;;;;;;;33.78;22.42;;;;;;;16.04;74.28;102065.91;10372436;28;20487;-75
2022/05/03 10:10:56;;;;;;;35.08;22.75;;;;;;;16.20;74.10;102057.34;10372353;28;20065;-74
2022/05/03 10:21:28;;;;;;;35.67;21.13;;;;;;;16.14;74.61;102063.63;10367204;28;20041;-74
2022/05/03 10:27:03;;;;;;;35.35;20.42;;;;;;;16.39;74.24;102055.69;10380170;28;20038;-75
2022/05/03 10:32:06;;;;;;;38.35;22.73;;;;;;;16.59;74.25;102061.22;10380769;28;20132;-75
2022/05/03 10:37:10;;;;;;;33.88;20.33;;;;;;;16.71;73.45;102062.25;10380210;28;20026;-76
2022/05/03 10:42:12;;;;;;;37.47;22.63;;;;;;;16.60;73.61;102062.06;10363670;28;20129;-77
2022/05/03 10:47:30;;;;;;;33.50;19.85;;;;;;;16.49;73.47;102058.03;10380446;28;20038;-76
2022/05/03 10:52:30;;;;;;;32.55;19.25;;;;;;;16.84;73.24;102055.13;10382341;28;20030;-75
2022/05/03 10:57:31;;;;;;;33.45;18.33;;;;;;;17.34;72.76;102044.53;10380320;28;20034;-76
2022/05/03 11:02:32;;;;;;;22.15;15.15;;;;;;;17.77;72.24;102044.00;10347551;28;20106;-76
2022/05/03 11:07:33;;;;;;;21.77;16.65;;;;;;;18.07;71.22;102047.00;10380092;28;20034;-77
2022/05/03 11:12:49;;;;;;;22.30;14.18;;;;;;;18.39;70.52;102033.31;10362705;28;20026;-76
2022/05/03 11:17:50;;;;;;;18.80;11.93;;;;;;;19.04;69.01;102026.44;10379237;28;20441;-77
2022/05/03 11:22:50;;;;;;;21.67;11.80;;;;;;;20.21;66.15;102029.03;10379297;28;20029;-77
2022/05/03 11:27:52;;;;;;;14.82;11.68;;;;;;;20.66;66.58;102013.97;10377276;28;20028;-75
2022/05/03 11:32:56;;;;;;;13.18;9.55;;;;;;;19.35;65.47;102004.59;10378605;28;20038;-78
2022/05/03 11:37:56;;;;;;;8.18;7.32;;;;;;;18.92;66.82;102016.44;10361828;28;20030;-75
2022/05/03 11:42:56;;;;;;;7.95;7.25;;;;;;;19.25;66.50;102007.88;10360381;28;20180;-76
2022/05/03 11:47:57;;;;;;;11.63;6.75;;;;;;;19.22;65.46;102009.16;10377190;28;20053;-75
2022/05/03 11:58:24;;;;;;;7.60;6.95;;;;;;;18.52;65.54;102003.03;10366363;28;20445;-75
2022/05/03 12:03:24;;;;;;;17.13;7.95;;;;;;;18.26;66.44;102007.66;10365421;28;20118;-76
2022/05/03 12:08:25;;;;;;;10.88;7.60;;;;;;;17.84;65.84;102014.69;10362165;28;20034;-76
2022/05/03 12:13:27;;;;;;;6.75;5.18;;;;;;;17.55;67.38;102007.81;10380640;28;20068;-75
2022/05/03 12:18:28;;;;;;;11.80;7.95;;;;;;;17.21;67.77;102004.34;10361975;28;20096;-75
2022/05/03 12:23:34;;;;;;;16.17;8.98;;;;;;;16.98;69.03;102012.19;10378227;28;20101;-75
2022/05/03 12:28:39;;;;;;;17.08;8.35;;;;;;;16.60;69.84;102010.09;10378709;28;20038;-76
2022/05/03 12:33:50;;;;;;;15.43;9.07;;;;;;;16.23;71.54;102015.09;10361287;28;20375;-76
2022/05/03 12:38:50;;;;;;;11.52;9.27;;;;;;;15.76;72.16;102011.41;10359018;28;20405;-75
2022/05/03 12:44:08;;;;;;;12.25;8.77;;;;;;;15.90;72.92;102013.13;10376473;28;20128;-77
2022/05/03 12:49:13;;;;;;;15.57;8.75;;;;;;;15.72;73.79;102002.78;10376754;28;20386;-76
2022/05/03 12:54:13;;;;;;;16.80;8.77;;;;;;;15.42;74.99;102007.66;10359552;28;20513;-75
2022/05/03 12:59:14;;;;;;;11.35;8.35;;;;;;;15.71;73.74;102000.25;10375078;28;20168;-77
2022/05/03 13:04:15;;;;;;;15.55;9.05;;;;;;;15.61;73.85;101999.78;10358784;28;20034;-75
2022/05/03 13:09:16;;;;;;;12.20;8.15;;;;;;;15.73;74.14;101999.00;10358202;28;20030;-76
2022/05/03 13:14:17;;;;;;;19.38;8.77;;;;;;;16.24;72.95;101986.69;10373797;28;20462;-75
2022/05/03 13:19:17;;;;;;;28.83;9.57;;;;;;;16.39;72.37;101987.34;10357615;28;20124;-76
2022/05/03 13:24:17;;;;;;;13.95;8.93;;;;;;;16.82;71.57;101983.38;10374992;28;20057;-76
2022/05/03 13:29:19;;;;;;;16.65;9.65;;;;;;;16.79;70.46;101979.19;10357741;28;20494;-77
2022/05/03 13:34:19;;;;;;;13.00;8.25;;;;;;;16.46;71.20;101977.28;10375210;28;20045;-75
2022/05/03 13:44:43;;;;;;;8.35;5.85;;;;;;;16.28;71.33;101988.81;10345586;28;20405;-76
2022/05/03 13:49:44;;;;;;;11.70;7.47;;;;;;;16.61;71.47;101981.69;10373389;28;20054;-77
2022/05/03 13:54:44;;;;;;;15.93;6.43;;;;;;;17.12;69.77;101984.56;10371346;28;20041;-77
2022/05/03 13:59:45;;;;;;;11.48;6.72;;;;;;;16.76;68.46;101978.75;10371766;28;20445;-76
2022/05/03 14:04:45;;;;;;;6.82;6.20;;;;;;;17.16;67.82;101979.50;10355986;28;20038;-75
2022/05/03 14:09:45;;;;;;;9.80;6.72;;;;;;;17.95;66.07;101975.59;10340688;28;20033;-77
2022/05/03 14:14:46;;;;;;;8.98;6.97;;;;;;;17.87;64.40;101973.97;10373910;28;20042;-76
2022/05/03 14:19:46;;;;;;;9.95;6.78;;;;;;;17.67;65.70;101956.75;10373438;28;20038;-76
2022/05/03 14:24:47;;;;;;;10.63;7.82;;;;;;;17.11;66.75;101965.66;10356423;28;20033;-77
2022/05/03 14:29:48;;;;;;;8.93;6.70;;;;;;;16.56;67.56;101974.13;10372449;28;20030;-77
2022/05/03 14:34:48;;;;;;;6.95;4.97;;;;;;;15.91;68.98;101973.84;10373669;28;20034;-76
2022/05/03 14:39:49;;;;;;;6.72;5.35;;;;;;;15.31;70.28;101980.94;10373180;28;20070;-77
2022/05/03 14:44:49;;;;;;;8.43;6.07;;;;;;;14.87;72.35;101988.47;10374187;28;20038;-75
2022/05/03 14:49:49;;;;;;;6.63;4.75;;;;;;;14.50;74.34;101983.31;10373668;28;20081;-76
2022/05/03 14:54:50;;;;;;;23.60;5.93;;;;;;;14.49;74.55;101990.66;10355930;28;20434;-76
2022/05/03 15:05:10;;;;;;;13.90;7.15;;;;;;;14.94;73.19;101988.50;10374681;28;20037;-77
2022/05/03 15:10:11;;;;;;;26.77;6.05;;;;;;;15.32;71.32;101983.47;10379732;28;20050;-76
2022/05/03 15:15:15;;;;;;;9.77;4.57;;;;;;;15.49;69.90;101989.44;10362708;28;20034;-76
2022/05/03 15:20:17;;;;;;;13.20;4.40;;;;;;;15.75;69.22;101976.94;10379302;28;20466;-76
2022/05/03 15:25:17;;;;;;;7.57;4.93;;;;;;;15.94;68.62;101978.06;10378774;28;20036;-75
2022/05/03 15:30:17;;;;;;;10.07;4.35;;;;;;;15.45;68.19;101979.97;10379370;28;20034;-75
2022/05/03 15:35:18;;;;;;;9.95;4.60;;;;;;;15.28;67.79;101978.59;10377370;28;20034;-75
2022/05/03 15:40:19;;;;;;;10.65;4.70;;;;;;;14.99;67.65;101983.28;10362602;28;20029;-75
2022/05/03 15:45:19;;;;;;;11.40;3.67;;;;;;;14.78;68.61;101977.91;10378857;28;20117;-76
2022/05/03 15:50:19;;;;;;;15.60;4.60;;;;;;;14.73;68.32;101983.09;10378855;28;20130;-76
2022/05/03 15:55:20;;;;;;;7.15;4.32;;;;;;;14.55;68.96;101984.47;10360400;28;20118;-76
2022/05/03 16:00:21;;;;;;;6.85;5.75;;;;;;;14.40;68.77;101986.38;10344260;28;20042;-77
2022/05/03 16:05:22;;;;;;;16.50;5.07;;;;;;;14.33;69.16;101982.75;10377813;28;20041;-75
2022/05/03 16:10:23;;;;;;;5.75;3.67;;;;;;;14.29;69.52;101989.63;10376473;28;20492;-75
2022/05/03 16:15:23;;;;;;;11.98;4.13;;;;;;;14.10;69.11;101991.13;10376996;28;20173;-76
2022/05/03 16:20:24;;;;;;;12.40;4.53;;;;;;;13.90;69.12;101993.63;10359425;28;20118;-76
2022/05/03 16:25:24;;;;;;;15.07;5.00;;;;;;;13.77;70.04;101993.50;10376424;28;20358;-76
2022/05/03 16:30:24;;;;;;;7.90;4.68;;;;;;;13.81;69.68;102006.50;10359891;28;20041;-76
2022/05/03 16:35:25;;;;;;;16.30;3.60;;;;;;;13.49;69.58;101988.75;10377652;28;20061;-77
2022/05/03 16:45:45;;;;;;;14.85;4.45;;;;;;;13.00;70.95;101984.72;10375409;28;20116;-76
2022/05/03 16:50:46;;;;;;;9.27;3.47;;;;;;;12.86;70.61;101999.16;10378070;28;20149;-75
2022/05/03 16:55:46;;;;;;;4.50;3.25;;;;;;;12.72;71.07;101999.97;10359862;28;20490;-76
2022/05/03 17:00:47;;;;;;;10.77;4.07;;;;;;;12.62;70.80;101993.97;10376014;28;20053;-76
2022/05/03 17:05:47;;;;;;;10.88;4.57;;;;;;;12.57;70.13;102000.81;10358975;28;20058;-75
2022/05/03 17:10:48;;;;;;;13.18;5.28;;;;;;;12.46;70.02;101987.66;10376339;28;20034;-76
2022/05/03 17:15:48;;;;;;;7.70;4.07;;;;;;;12.51;69.63;101981.69;10381609;28;20037;-75
2022/05/03 17:20:48;;;;;;;8.98;2.88;;;;;;;12.30;69.29;101994.06;10388659;28;20038;-75
2022/05/03 17:25:49;;;;;;;7.50;2.80;;;;;;;12.26;69.54;101995.47;10391736;28;20038;-76
2022/05/03 17:30:49;;;;;;;12.23;3.55;;;;;;;12.12;69.66;101990.78;10366562;28;20034;-76
2022/05/03 17:35:50;;;;;;;6.20;3.42;;;;;;;11.97;69.82;101993.47;10364181;28;20426;-76
2022/05/03 17:40:51;;;;;;;12.23;3.70;;;;;;;11.83;70.00;101994.19;10376222;28;20145;-75
2022/05/03 17:45:51;;;;;;;4.22;3.03;;;;;;;11.58;69.91;102004.31;10357528;28;20104;-76
2022/05/03 17:50:52;;;;;;;6.93;3.83;;;;;;;11.51;70.27;102008.78;10356855;28;20093;-76
2022/05/03 17:55:52;;;;;;;12.60;3.85;;;;;;;11.52;70.28;101999.59;10340466;28;20048;-74
2022/05/03 18:00:53;;;;;;;8.75;3.85;;;;;;;11.36;70.25;102000.56;10374117;28;20049;-75
2022/05/03 18:05:54;;;;;;;7.18;3.05;;;;;;;11.30;70.36;101999.38;10373775;28;20423;-75
2022/05/03 18:10:54;;;;;;;5.15;3.55;;;;;;;11.17;71.01;102001.81;10373777;28;20084;-75
2022/05/03 18:15:56;;;;;;;4.03;3.17;;;;;;;11.10;70.34;102003.50;10356761;28;20034;-75
2022/05/03 18:20:57;;;;;;;3.28;2.97;;;;;;;11.04;70.51;102005.06;10339974;28;20037;-75
2022/05/03 18:25:59;;;;;;;4.47;3.25;;;;;;;10.97;71.11;102009.47;10339943;28;20044;-76
2022/05/03 18:30:59;;;;;;;8.35;3.28;;;;;;;10.88;70.88;102007.78;10356825;28;20030;-76
2022/05/03 18:36:00;;;;;;;11.40;4.07;;;;;;;10.80;70.69;102010.53;10338846;28;20112;-75
2022/05/03 18:41:00;;;;;;;9.23;2.65;;;;;;;10.62;71.39;102005.28;10361785;28;20176;-75
2022/05/03 18:46:01;;;;;;;9.70;4.35;;;;;;;10.60;70.68;102010.91;10363830;28;20053;-75
2022/05/03 18:51:01;;;;;;;12.52;3.08;;;;;;;10.53;70.68;102004.47;10363647;28;20152;-78
2022/05/03 18:56:02;;;;;;;7.47;3.42;;;;;;;10.50;71.34;102001.22;10364277;28;20057;-75
2022/05/03 19:01:03;;;;;;;9.10;3.00;;;;;;;10.29;72.26;102007.16;10362612;28;20037;-74
2022/05/03 19:06:04;;;;;;;9.27;3.95;;;;;;;10.13;72.73;102013.38;10363418;28;20030;-76
2022/05/03 19:11:04;;;;;;;8.98;3.75;;;;;;;10.13;71.42;102008.81;10382193;28;20077;-74
2022/05/03 19:16:05;;;;;;;7.05;3.85;;;;;;;10.08;72.04;102018.44;10363119;28;20066;-75
2022/05/03 19:21:06;;;;;;;8.00;4.07;;;;;;;9.99;72.43;102023.84;10377710;28;20041;-75
2022/05/03 19:31:26;;;;;;;7.18;4.43;;;;;;;9.85;73.75;102016.38;10378352;28;20146;-72
2022/05/03 19:36:27;;;;;;;8.35;2.90;;;;;;;9.90;74.11;102030.25;10378762;28;20037;-74
2022/05/03 19:41:28;;;;;;;10.05;4.10;;;;;;;9.95;73.67;102036.00;10378054;28;20041;-73
2022/05/03 19:46:29;;;;;;;15.05;3.78;;;;;;;9.91;74.86;102031.09;10360887;28;20038;-74
2022/05/03 19:51:30;;;;;;;7.72;4.65;;;;;;;9.87;75.53;102036.00;10376717;28;20088;-77
2022/05/03 19:56:30;;;;;;;10.93;3.45;;;;;;;9.86;74.62;102038.84;10361921;28;20033;-73
2022/05/03 20:01:30;;;;;;;22.67;5.25;;;;;;;9.87;73.51;102043.28;10379780;28;20042;-77
2022/05/03 20:06:31;;;;;;;7.15;4.25;;;;;;;9.83;74.13;102041.88;10361655;28;20030;-77
2022/05/03 20:11:32;;;;;;;7.35;3.72;;;;;;;9.80;75.11;102051.19;10344201;28;20033;-76
2022/05/03 20:16:33;;;;;;;9.27;4.43;;;;;;;9.72;75.84;102048.47;10359999;28;20034;-76
2022/05/03 20:21:33;;;;;;;3.63;3.33;;;;;;;9.63;75.33;102044.03;10359814;28;20030;-73
2022/05/03 20:26:35;;;;;;;7.85;3.88;;;;;;;9.57;74.66;102044.66;10375635;28;20054;-74
2022/05/03 20:31:35;;;;;;;3.75;3.13;;;;;;;9.46;74.98;102051.22;10377995;28;20529;-76
2022/05/03 20:36:36;;;;;;;8.80;4.13;;;;;;;9.41;74.92;102059.84;10343692;28;20088;-73
2022/05/03 20:41:36;;;;;;;7.90;4.30;;;;;;;9.33;74.45;102062.47;10359595;28;20473;-74
2022/05/03 20:51:55;;;;;;;8.32;4.32;;;;;;;9.10;74.32;102055.94;10375265;28;20057;-74
2022/05/03 20:56:56;;;;;;;18.25;4.72;;;;;;;8.92;74.68;102064.09;10344038;28;20455;-74
2022/05/03 21:01:56;;;;;;;14.40;4.13;;;;;;;8.70;75.37;102057.34;10374460;28;20041;-75
2022/05/03 21:06:57;;;;;;;9.35;4.65;;;;;;;8.52;77.34;102060.91;10358515;28;20133;-75
2022/05/03 21:11:57;;;;;;;5.72;3.75;;;;;;;8.39;76.31;102052.34;10358468;28;20143;-73
2022/05/03 21:16:57;;;;;;;5.72;3.25;;;;;;;8.26;75.86;102060.78;10359933;28;20034;-76
2022/05/03 21:21:58;;;;;;;6.10;4.63;;;;;;;8.12;75.55;102059.47;10375450;28;20052;-76
2022/05/03 21:26:59;;;;;;;5.80;5.25;;;;;;;8.05;75.62;102057.56;10358896;28;20058;-74
2022/05/03 21:31:59;;;;;;;7.78;4.30;;;;;;;7.96;76.13;102063.88;10345338;28;20034;-73
2022/05/03 21:37:00;;;;;;;9.60;5.13;;;;;;;7.88;76.09;102053.81;10357409;28;20437;-75
2022/05/03 21:42:01;;;;;;;12.15;6.03;;;;;;;7.78;75.88;102053.88;10341896;28;20152;-74
2022/05/03 21:47:01;;;;;;;15.93;5.72;;;;;;;7.66;75.99;102053.25;10374665;28;20421;-74
2022/05/03 21:52:02;;;;;;;11.63;4.63;;;;;;;7.56;76.00;102054.28;10357689;28;20140;-75
2022/05/03 21:57:04;;;;;;;5.22;3.78;;;;;;;7.53;76.49;102062.66;10373672;28;20581;-75
2022/05/03 22:02:04;;;;;;;5.63;3.80;;;;;;;7.60;76.62;102059.25;10375940;28;20096;-76
2022/05/03 22:07:05;;;;;;;6.80;5.13;;;;;;;7.72;76.92;102062.56;10373976;28;20441;-76
2022/05/03 22:12:06;;;;;;;8.63;5.20;;;;;;;7.88;77.70;102064.59;10374049;28;20099;-75
2022/05/03 22:17:06;;;;;;;13.88;4.35;;;;;;;8.00;77.94;102058.00;10381150;28;20107;-75
2022/05/03 22:22:07;;;;;;;18.15;4.88;;;;;;;8.14;77.58;102070.13;10382218;28;20069;-76
2022/05/03 22:27:07;;;;;;;14.90;5.57;;;;;;;8.23;78.13;102071.03;10381332;28;20446;-75
2022/05/03 22:32:08;;;;;;;25.77;5.93;;;;;;;8.29;77.99;102075.84;10381677;28;20088;-75
2022/05/03 22:37:08;;;;;;;11.73;5.95;;;;;;;8.29;78.67;102071.28;10363867;28;20034;-76
2022/05/03 22:42:09;;;;;;;7.28;5.10;;;;;;;8.32;78.13;102070.13;10364542;28;20037;-75
2022/05/03 22:47:09;;;;;;;8.50;4.78;;;;;;;8.27;78.42;102067.06;10363423;28;20050;-75
2022/05/03 22:52:10;;;;;;;15.30;5.78;;;;;;;8.27;79.19;102072.47;10346086;28;20054;-75
2022/05/03 22:57:10;;;;;;;13.38;4.90;;;;;;;8.30;80.56;102067.59;10363370;28;20049;-74
2022/05/03 23:02:11;;;;;;;10.65;4.80;;;;;;;8.38;79.52;102074.94;10379295;28;20473;-75
2022/05/03 23:07:11;;;;;;;5.70;4.93;;;;;;;8.43;80.02;102086.13;10379813;28;20025;-76
2022/05/03 23:12:12;;;;;;;5.65;4.85;;;;;;;8.47;80.08;102074.03;10381064;28;20116;-75
2022/05/03 23:17:12;;;;;;;9.07;4.63;;;;;;;8.55;79.88;102075.94;10379844;28;20037;-75
2022/05/03 23:22:12;;;;;;;10.75;5.43;;;;;;;8.52;81.13;102066.31;10381185;28;20453;-76
2022/05/03 23:27:13;;;;;;;13.38;4.60;;;;;;;8.53;80.42;102073.41;10360826;28;20045;-75
2022/05/03 23:32:13;;;;;;;5.18;4.25;;;;;;;8.57;79.81;102069.38;10379976;28;20045;-76
2022/05/03 23:37:14;;;;;;;12.50;4.45;;;;;;;8.61;79.30;102076.19;10380558;28;20077;-74
2022/05/03 23:42:14;;;;;;;12.95;5.03;;;;;;;8.61;80.42;102070.78;10362726;28;20500;-75
2022/05/03 23:47:14;;;;;;;10.82;4.55;;;;;;;8.66;79.63;102064.91;10360754;28;20094;-76
2022/05/03 23:52:15;;;;;;;7.90;4.57;;;;;;;8.65;79.69;102060.53;10385405;28;20125;-74
2022/05/03 23:57:15;;;;;;;8.15;4.80;;;;;;;8.69;79.47;102071.84;10360446;28;20046;-76
